createdAt,value
2023-04-17T00:08:34.052Z,99807.62
2023-04-17T00:18:40.042Z,99806.77
2023-04-17T00:28:47.295Z,99811.57
2023-04-17T00:38:51.453Z,99810.16
2023-04-17T00:48:57.566Z,99810.65
2023-04-17T00:59:05.017Z,99818.77
2023-04-17T01:09:11.416Z,99821.67
2023-04-17T01:19:18.118Z,99823.96
2023-04-17T01:29:23.753Z,99822.19
2023-04-17T01:39:29.388Z,99817.91
2023-04-17T01:49:35.485Z,99813.08
2023-04-17T01:59:41.365Z,99811.88
2023-04-17T02:09:47.294Z,99817.56
2023-04-17T02:19:53.008Z,99821.98
2023-04-17T02:29:58.757Z,99827.91
2023-04-17T02:40:06.750Z,99836.44
2023-04-17T02:50:14.116Z,99842.54
2023-04-17T03:00:20.932Z,99839.98
2023-04-17T03:10:26.639Z,99847.01
2023-04-17T03:20:32.374Z,99859.34
2023-04-17T03:30:38.256Z,99856.44
2023-04-17T03:40:44.399Z,99863.38
2023-04-17T03:50:50.444Z,99868.02
2023-04-17T04:00:58.895Z,99874.47
2023-04-17T04:11:04.538Z,99887.68
2023-04-17T04:21:12.159Z,99888.17
2023-04-17T04:31:19.419Z,99887.45
2023-04-17T04:41:25.381Z,99896.42
2023-04-17T04:51:32.065Z,99897.92
2023-04-17T05:01:39.902Z,99900.98
2023-04-17T05:11:46.368Z,99907.48
2023-04-17T05:21:52.418Z,99907.58
2023-04-17T05:31:58.550Z,99905.46
2023-04-17T05:42:04.177Z,99914.06
2023-04-17T05:52:09.895Z,99916.27
2023-04-17T06:02:15.716Z,99928.02
2023-04-17T06:12:21.728Z,99929.90
2023-04-17T06:22:27.627Z,99942.74
2023-04-17T06:32:33.578Z,99945.44
2023-04-17T06:42:39.510Z,99948.65
2023-04-17T06:52:45.522Z,99956.61
2023-04-17T07:02:51.680Z,99951.66
2023-04-17T07:12:57.547Z,99947.61
2023-04-17T07:23:03.384Z,99956.77
2023-04-17T07:33:09.007Z,99966.08
2023-04-17T07:43:15.396Z,99965.71
2023-04-17T07:53:22.204Z,99964.67
2023-04-17T08:03:28.004Z,99961.75
2023-04-17T08:13:32.676Z,99952.13
2023-04-17T08:23:38.325Z,99959.89
2023-04-17T08:33:44.021Z,99969.27
2023-04-17T08:43:51.957Z,99969.83
2023-04-17T08:53:57.823Z,99971.77
2023-04-17T09:04:04.003Z,99971.23
2023-04-17T09:14:33.241Z,99985.96
2023-04-17T09:24:38.995Z,99988.23
2023-04-17T09:34:45.093Z,99996.30
2023-04-17T09:44:50.814Z,100006.05
2023-04-17T09:54:57.166Z,100004.95
2023-04-17T10:05:07.388Z,100001.95
2023-04-17T10:15:17.325Z,100001.48
2023-04-17T10:25:25.331Z,100000.95
2023-04-17T10:35:40.738Z,99983.36
2023-04-17T10:46:02.861Z,99981.14
2023-04-17T10:56:08.849Z,99982.55
2023-04-17T11:06:15.551Z,99978.23
2023-04-17T11:16:22.578Z,99980.29
2023-04-17T11:26:28.205Z,99987.65
2023-04-17T11:36:35.559Z,99987.77
2023-04-17T11:46:41.387Z,99995.41
2023-04-17T11:57:01.785Z,99998.19
2023-04-17T12:07:09.423Z,100001.36
2023-04-17T12:17:15.300Z,100002.55
2023-04-17T12:27:21.648Z,100025.65
2023-04-17T12:37:27.329Z,100026.00
2023-04-17T12:47:33.105Z,100032.04
2023-04-17T12:57:40.160Z,100035.45
2023-04-17T13:07:46.468Z,100030.21
2023-04-17T13:17:52.178Z,100020.06
2023-04-17T13:27:58.067Z,100020.35
2023-04-17T13:38:04.101Z,100017.04
2023-04-17T13:48:09.941Z,100012.59
2023-04-17T13:58:15.791Z,100004.27
2023-04-17T14:08:21.892Z,99996.17
2023-04-17T14:18:27.574Z,100004.73
2023-04-17T14:28:33.225Z,100002.15
2023-04-17T14:38:39.116Z,99998.09
2023-04-17T14:48:54.778Z,99987.86
2023-04-17T14:59:01.703Z,99985.17
2023-04-17T15:09:07.472Z,99980.30
2023-04-17T15:19:13.588Z,99986.70
2023-04-17T15:29:19.661Z,100008.92
2023-04-17T15:39:25.448Z,100014.76
2023-04-17T15:49:31.124Z,100014.77
2023-04-17T15:59:36.792Z,100018.48
2023-04-17T16:09:44.389Z,100022.08
2023-04-17T16:19:50.824Z,100021.95
2023-04-17T16:29:56.868Z,100024.93
2023-04-17T16:40:05.179Z,100021.39
2023-04-17T16:50:12.774Z,100026.41
2023-04-17T17:00:19.646Z,100029.53
2023-04-17T17:10:25.296Z,100039.05
2023-04-17T17:20:31.060Z,100041.37
2023-04-17T17:30:36.830Z,100044.45
2023-04-17T17:40:42.535Z,100051.69
2023-04-17T17:50:48.963Z,100066.93
2023-04-17T18:00:54.611Z,100069.92
2023-04-17T18:11:01.686Z,100077.90
2023-04-17T18:21:11.228Z,100091.17
2023-04-17T18:31:17.149Z,100096.61
2023-04-17T18:41:23.166Z,100103.55
2023-04-17T18:51:28.993Z,100109.39
2023-04-17T19:01:35.189Z,100108.88
2023-04-17T19:11:41.219Z,100114.33
2023-04-17T19:21:47.077Z,100119.45
2023-04-17T19:31:52.869Z,100126.58
2023-04-17T19:41:58.810Z,100128.96
2023-04-17T19:52:04.878Z,100132.34
2023-04-17T20:02:11.604Z,100133.87
2023-04-17T20:12:17.481Z,100132.02
2023-04-17T20:22:23.350Z,100145.79
2023-04-17T20:32:29.167Z,100145.58
2023-04-17T20:42:35.155Z,100144.16
2023-04-17T20:52:40.831Z,100145.67
2023-04-17T21:02:46.689Z,100151.60
2023-04-17T21:12:52.491Z,100154.33
2023-04-17T21:22:58.278Z,100159.24
2023-04-17T21:33:04.115Z,100168.21
2023-04-17T21:43:10.056Z,100164.45
2023-04-17T21:53:15.786Z,100168.02
2023-04-17T22:03:23.875Z,100162.67
2023-04-17T22:13:29.711Z,100168.08
2023-04-17T22:23:35.517Z,100167.89
2023-04-17T22:33:41.354Z,100170.30
2023-04-17T22:43:50.658Z,100170.48
2023-04-17T22:53:56.721Z,100169.80
2023-04-17T23:04:02.444Z,100168.89
2023-04-17T23:14:08.323Z,100164.18
2023-04-17T23:24:14.665Z,100155.88
2023-04-17T23:34:20.530Z,100154.16
2023-04-17T23:44:26.166Z,100150.13
2023-04-17T23:54:31.946Z,100149.31
